sensor_id;sensor_type;location;lat;lon;timestamp;P1;durP1;ratioP1;P2;durP2;ratioP2
1294;SDS011;640;48.310;11.728;2023-04-22T00:01:38;7.63;;;4.22;;
1294;SDS011;640;48.310;11.728;2023-04-22T00:04:08;10.55;;;4.70;;
1294;SDS011;640;48.310;11.728;2023-04-22T00:06:37;7.65;;;4.18;;
1294;SDS011;640;48.310;11.728;2023-04-22T00:09:05;7.22;;;3.60;;
1294;SDS011;640;48.310;11.728;2023-04-22T00:11:33;7.82;;;4.55;;
1294;SDS011;640;48.310;11.728;2023-04-22T00:14:02;8.77;;;4.65;;
1294;SDS011;640;48.310;11.728;2023-04-22T00:16:30;7.97;;;4.68;;
1294;SDS011;640;48.310;11.728;2023-04-22T00:18:58;6.43;;;3.90;;
1294;SDS011;640;48.310;11.728;2023-04-22T00:21:28;6.38;;;4.10;;
1294;SDS011;640;48.310;11.728;2023-04-22T00:23:56;9.03;;;4.40;;
1294;SDS011;640;48.310;11.728;2023-04-22T00:29:06;8.73;;;4.53;;
1294;SDS011;640;48.310;11.728;2023-04-22T00:31:35;6.88;;;4.50;;
1294;SDS011;640;48.310;11.728;2023-04-22T00:34:03;7.38;;;4.30;;
1294;SDS011;640;48.310;11.728;2023-04-22T00:36:32;7.28;;;4.30;;
1294;SDS011;640;48.310;11.728;2023-04-22T00:39:01;7.80;;;4.18;;
1294;SDS011;640;48.310;11.728;2023-04-22T00:41:29;6.97;;;4.93;;
1294;SDS011;640;48.310;11.728;2023-04-22T00:43:58;8.65;;;4.35;;
1294;SDS011;640;48.310;11.728;2023-04-22T00:46:27;7.82;;;4.45;;
1294;SDS011;640;48.310;11.728;2023-04-22T00:48:56;6.60;;;4.07;;
1294;SDS011;640;48.310;11.728;2023-04-22T00:51:24;10.00;;;4.80;;
1294;SDS011;640;48.310;11.728;2023-04-22T00:53:54;8.95;;;5.35;;
1294;SDS011;640;48.310;11.728;2023-04-22T00:56:23;8.55;;;4.82;;
1294;SDS011;640;48.310;11.728;2023-04-22T00:58:53;9.13;;;4.82;;
1294;SDS011;640;48.310;11.728;2023-04-22T01:01:22;7.95;;;4.80;;
1294;SDS011;640;48.310;11.728;2023-04-22T01:03:50;7.25;;;4.60;;
1294;SDS011;640;48.310;11.728;2023-04-22T01:06:20;8.57;;;4.75;;
1294;SDS011;640;48.310;11.728;2023-04-22T01:08:49;8.02;;;4.70;;
1294;SDS011;640;48.310;11.728;2023-04-22T01:11:19;10.43;;;4.97;;
1294;SDS011;640;48.310;11.728;2023-04-22T01:13:47;9.68;;;4.70;;
1294;SDS011;640;48.310;11.728;2023-04-22T01:16:15;10.07;;;4.60;;
1294;SDS011;640;48.310;11.728;2023-04-22T01:18:44;8.45;;;4.38;;
1294;SDS011;640;48.310;11.728;2023-04-22T01:21:12;7.95;;;4.38;;
1294;SDS011;640;48.310;11.728;2023-04-22T01:23:42;8.63;;;4.18;;
1294;SDS011;640;48.310;11.728;2023-04-22T01:26:11;9.85;;;4.60;;
1294;SDS011;640;48.310;11.728;2023-04-22T01:28:39;6.38;;;3.85;;
1294;SDS011;640;48.310;11.728;2023-04-22T01:31:07;9.05;;;4.13;;
1294;SDS011;640;48.310;11.728;2023-04-22T01:33:36;8.40;;;4.93;;
1294;SDS011;640;48.310;11.728;2023-04-22T01:36:05;9.55;;;4.97;;
1294;SDS011;640;48.310;11.728;2023-04-22T01:38:37;9.60;;;4.45;;
1294;SDS011;640;48.310;11.728;2023-04-22T01:41:07;8.48;;;4.70;;
1294;SDS011;640;48.310;11.728;2023-04-22T01:43:35;10.07;;;4.27;;
1294;SDS011;640;48.310;11.728;2023-04-22T01:46:03;7.35;;;4.53;;
1294;SDS011;640;48.310;11.728;2023-04-22T01:48:33;9.20;;;4.38;;
1294;SDS011;640;48.310;11.728;2023-04-22T01:51:01;9.10;;;4.45;;
1294;SDS011;640;48.310;11.728;2023-04-22T01:53:29;13.32;;;4.80;;
1294;SDS011;640;48.310;11.728;2023-04-22T01:55:58;7.82;;;4.70;;
1294;SDS011;640;48.310;11.728;2023-04-22T01:58:28;15.75;;;5.20;;
1294;SDS011;640;48.310;11.728;2023-04-22T02:00:58;7.80;;;4.70;;
1294;SDS011;640;48.310;11.728;2023-04-22T02:03:26;8.90;;;5.20;;
1294;SDS011;640;48.310;11.728;2023-04-22T02:05:54;9.32;;;4.93;;
1294;SDS011;640;48.310;11.728;2023-04-22T02:08:23;10.70;;;5.40;;
1294;SDS011;640;48.310;11.728;2023-04-22T02:10:51;10.20;;;5.20;;
1294;SDS011;640;48.310;11.728;2023-04-22T02:13:20;9.55;;;5.15;;
1294;SDS011;640;48.310;11.728;2023-04-22T02:15:50;11.05;;;5.20;;
1294;SDS011;640;48.310;11.728;2023-04-22T02:18:19;9.98;;;5.32;;
1294;SDS011;640;48.310;11.728;2023-04-22T02:20:48;8.15;;;4.53;;
1294;SDS011;640;48.310;11.728;2023-04-22T02:23:16;8.57;;;5.00;;
1294;SDS011;640;48.310;11.728;2023-04-22T02:25:47;8.88;;;4.30;;
1294;SDS011;640;48.310;11.728;2023-04-22T02:28:16;8.82;;;4.70;;
1294;SDS011;640;48.310;11.728;2023-04-22T02:30:45;7.53;;;4.65;;
1294;SDS011;640;48.310;11.728;2023-04-22T02:33:14;6.22;;;4.70;;
1294;SDS011;640;48.310;11.728;2023-04-22T02:35:43;12.60;;;5.18;;
1294;SDS011;640;48.310;11.728;2023-04-22T02:38:11;6.90;;;4.70;;
1294;SDS011;640;48.310;11.728;2023-04-22T02:40:39;8.70;;;5.05;;
1294;SDS011;640;48.310;11.728;2023-04-22T02:43:08;9.43;;;5.60;;
1294;SDS011;640;48.310;11.728;2023-04-22T02:45:36;7.90;;;5.13;;
1294;SDS011;640;48.310;11.728;2023-04-22T02:48:06;10.63;;;5.10;;
1294;SDS011;640;48.310;11.728;2023-04-22T02:50:36;9.23;;;5.53;;
1294;SDS011;640;48.310;11.728;2023-04-22T02:53:04;12.13;;;4.43;;
1294;SDS011;640;48.310;11.728;2023-04-22T02:55:33;10.07;;;5.28;;
1294;SDS011;640;48.310;11.728;2023-04-22T02:58:01;10.93;;;5.43;;
1294;SDS011;640;48.310;11.728;2023-04-22T03:00:29;13.35;;;5.10;;
1294;SDS011;640;48.310;11.728;2023-04-22T03:02:58;8.85;;;5.57;;
1294;SDS011;640;48.310;11.728;2023-04-22T03:05:26;9.02;;;5.15;;
1294;SDS011;640;48.310;11.728;2023-04-22T03:07:56;10.10;;;5.75;;
1294;SDS011;640;48.310;11.728;2023-04-22T03:10:24;9.73;;;5.50;;
1294;SDS011;640;48.310;11.728;2023-04-22T03:12:52;9.15;;;5.72;;
1294;SDS011;640;48.310;11.728;2023-04-22T03:15:21;14.13;;;5.82;;
1294;SDS011;640;48.310;11.728;2023-04-22T03:17:49;10.52;;;6.18;;
1294;SDS011;640;48.310;11.728;2023-04-22T03:20:18;9.27;;;4.90;;
1294;SDS011;640;48.310;11.728;2023-04-22T03:22:46;8.23;;;4.75;;
1294;SDS011;640;48.310;11.728;2023-04-22T03:25:16;6.30;;;4.30;;
1294;SDS011;640;48.310;11.728;2023-04-22T03:27:44;6.47;;;3.78;;
1294;SDS011;640;48.310;11.728;2023-04-22T03:30:13;7.22;;;4.53;;
1294;SDS011;640;48.310;11.728;2023-04-22T03:32:41;8.15;;;4.60;;
1294;SDS011;640;48.310;11.728;2023-04-22T03:35:09;7.50;;;4.72;;
1294;SDS011;640;48.310;11.728;2023-04-22T03:37:38;11.45;;;5.40;;
1294;SDS011;640;48.310;11.728;2023-04-22T03:40:06;10.18;;;5.60;;
1294;SDS011;640;48.310;11.728;2023-04-22T03:42:40;9.07;;;5.05;;
1294;SDS011;640;48.310;11.728;2023-04-22T03:45:08;8.35;;;4.78;;
1294;SDS011;640;48.310;11.728;2023-04-22T03:47:37;9.27;;;4.63;;
1294;SDS011;640;48.310;11.728;2023-04-22T03:50:06;8.15;;;4.22;;
1294;SDS011;640;48.310;11.728;2023-04-22T03:52:34;8.15;;;4.45;;
1294;SDS011;640;48.310;11.728;2023-04-22T03:55:03;6.55;;;4.13;;
1294;SDS011;640;48.310;11.728;2023-04-22T03:57:31;7.70;;;4.25;;
1294;SDS011;640;48.310;11.728;2023-04-22T04:00:01;9.63;;;4.30;;
1294;SDS011;640;48.310;11.728;2023-04-22T04:02:30;7.68;;;4.35;;
1294;SDS011;640;48.310;11.728;2023-04-22T04:04:58;8.38;;;5.30;;
1294;SDS011;640;48.310;11.728;2023-04-22T04:07:28;6.63;;;4.73;;
1294;SDS011;640;48.310;11.728;2023-04-22T04:09:56;7.95;;;5.10;;
1294;SDS011;640;48.310;11.728;2023-04-22T04:12:24;10.18;;;4.90;;
1294;SDS011;640;48.310;11.728;2023-04-22T04:14:53;8.30;;;4.68;;
1294;SDS011;640;48.310;11.728;2023-04-22T04:17:22;10.18;;;4.65;;
1294;SDS011;640;48.310;11.728;2023-04-22T04:19:52;7.25;;;4.35;;
1294;SDS011;640;48.310;11.728;2023-04-22T04:22:20;7.40;;;4.63;;
1294;SDS011;640;48.310;11.728;2023-04-22T04:24:48;8.52;;;4.82;;
1294;SDS011;640;48.310;11.728;2023-04-22T04:27:18;9.05;;;4.38;;
1294;SDS011;640;48.310;11.728;2023-04-22T04:29:46;7.20;;;4.53;;
1294;SDS011;640;48.310;11.728;2023-04-22T04:32:15;8.48;;;4.90;;
1294;SDS011;640;48.310;11.728;2023-04-22T04:34:45;9.20;;;4.93;;
1294;SDS011;640;48.310;11.728;2023-04-22T04:37:14;8.10;;;4.93;;
1294;SDS011;640;48.310;11.728;2023-04-22T04:39:44;10.77;;;5.32;;
1294;SDS011;640;48.310;11.728;2023-04-22T04:42:12;9.32;;;5.47;;
1294;SDS011;640;48.310;11.728;2023-04-22T04:44:41;9.80;;;5.80;;
1294;SDS011;640;48.310;11.728;2023-04-22T04:47:09;13.00;;;5.68;;
1294;SDS011;640;48.310;11.728;2023-04-22T04:49:38;8.30;;;5.72;;
1294;SDS011;640;48.310;11.728;2023-04-22T04:52:09;11.88;;;6.72;;
1294;SDS011;640;48.310;11.728;2023-04-22T04:54:37;13.00;;;7.15;;
1294;SDS011;640;48.310;11.728;2023-04-22T04:57:06;11.80;;;7.22;;
1294;SDS011;640;48.310;11.728;2023-04-22T04:59:35;15.85;;;7.70;;
1294;SDS011;640;48.310;11.728;2023-04-22T05:02:04;15.73;;;7.88;;
1294;SDS011;640;48.310;11.728;2023-04-22T05:04:33;12.82;;;7.75;;
1294;SDS011;640;48.310;11.728;2023-04-22T05:07:01;10.20;;;6.97;;
1294;SDS011;640;48.310;11.728;2023-04-22T05:09:31;12.30;;;6.88;;
1294;SDS011;640;48.310;11.728;2023-04-22T05:12:03;8.68;;;5.05;;
1294;SDS011;640;48.310;11.728;2023-04-22T05:14:32;7.78;;;4.85;;
1294;SDS011;640;48.310;11.728;2023-04-22T05:17:00;7.93;;;4.88;;
1294;SDS011;640;48.310;11.728;2023-04-22T05:19:29;10.65;;;4.85;;
1294;SDS011;640;48.310;11.728;2023-04-22T05:21:57;6.72;;;5.40;;
1294;SDS011;640;48.310;11.728;2023-04-22T05:24:25;6.68;;;4.47;;
1294;SDS011;640;48.310;11.728;2023-04-22T05:26:55;5.32;;;3.78;;
1294;SDS011;640;48.310;11.728;2023-04-22T05:29:24;12.77;;;6.85;;
1294;SDS011;640;48.310;11.728;2023-04-22T05:31:52;9.43;;;5.88;;
1294;SDS011;640;48.310;11.728;2023-04-22T05:34:20;9.48;;;5.60;;
1294;SDS011;640;48.310;11.728;2023-04-22T05:36:49;14.00;;;6.05;;
1294;SDS011;640;48.310;11.728;2023-04-22T05:39:17;9.18;;;6.05;;
1294;SDS011;640;48.310;11.728;2023-04-22T05:41:45;9.38;;;6.00;;
1294;SDS011;640;48.310;11.728;2023-04-22T05:44:15;9.95;;;7.05;;
1294;SDS011;640;48.310;11.728;2023-04-22T05:46:44;10.65;;;6.03;;
1294;SDS011;640;48.310;11.728;2023-04-22T05:49:12;10.07;;;5.82;;
1294;SDS011;640;48.310;11.728;2023-04-22T05:51:41;10.45;;;5.75;;
1294;SDS011;640;48.310;11.728;2023-04-22T05:54:09;9.65;;;5.30;;
1294;SDS011;640;48.310;11.728;2023-04-22T05:56:37;10.95;;;5.57;;
1294;SDS011;640;48.310;11.728;2023-04-22T05:59:06;7.88;;;5.30;;
1294;SDS011;640;48.310;11.728;2023-04-22T06:01:36;7.15;;;4.55;;
1294;SDS011;640;48.310;11.728;2023-04-22T06:04:04;5.60;;;3.65;;
1294;SDS011;640;48.310;11.728;2023-04-22T06:06:33;6.05;;;3.30;;
1294;SDS011;640;48.310;11.728;2023-04-22T06:09:01;4.30;;;3.10;;
1294;SDS011;640;48.310;11.728;2023-04-22T06:11:29;6.88;;;3.03;;
1294;SDS011;640;48.310;11.728;2023-04-22T06:13:58;4.28;;;2.72;;
1294;SDS011;640;48.310;11.728;2023-04-22T06:16:27;3.33;;;2.42;;
1294;SDS011;640;48.310;11.728;2023-04-22T06:18:56;4.85;;;3.17;;
1294;SDS011;640;48.310;11.728;2023-04-22T06:21:25;3.70;;;2.50;;
1294;SDS011;640;48.310;11.728;2023-04-22T06:23:54;2.97;;;2.35;;
1294;SDS011;640;48.310;11.728;2023-04-22T06:26:22;4.90;;;3.10;;
1294;SDS011;640;48.310;11.728;2023-04-22T06:28:51;4.90;;;2.90;;
1294;SDS011;640;48.310;11.728;2023-04-22T06:31:19;4.35;;;2.88;;
1294;SDS011;640;48.310;11.728;2023-04-22T06:33:47;3.88;;;2.83;;
1294;SDS011;640;48.310;11.728;2023-04-22T06:36:17;5.03;;;3.15;;
1294;SDS011;640;48.310;11.728;2023-04-22T06:38:45;8.52;;;3.50;;
1294;SDS011;640;48.310;11.728;2023-04-22T06:41:14;5.38;;;3.25;;
1294;SDS011;640;48.310;11.728;2023-04-22T06:43:43;4.95;;;3.13;;
1294;SDS011;640;48.310;11.728;2023-04-22T06:46:12;5.00;;;3.42;;
1294;SDS011;640;48.310;11.728;2023-04-22T06:48:40;5.50;;;2.95;;
1294;SDS011;640;48.310;11.728;2023-04-22T06:51:08;4.20;;;3.28;;
1294;SDS011;640;48.310;11.728;2023-04-22T06:53:38;4.60;;;3.05;;
1294;SDS011;640;48.310;11.728;2023-04-22T06:56:06;4.17;;;3.20;;
1294;SDS011;640;48.310;11.728;2023-04-22T06:58:34;4.45;;;2.63;;
1294;SDS011;640;48.310;11.728;2023-04-22T07:01:03;6.22;;;2.47;;
1294;SDS011;640;48.310;11.728;2023-04-22T07:03:31;3.90;;;2.80;;
1294;SDS011;640;48.310;11.728;2023-04-22T07:06:00;5.10;;;2.53;;
1294;SDS011;640;48.310;11.728;2023-04-22T07:08:28;5.15;;;2.53;;
1294;SDS011;640;48.310;11.728;2023-04-22T07:10:58;3.33;;;2.30;;
1294;SDS011;640;48.310;11.728;2023-04-22T07:13:26;4.93;;;2.27;;
1294;SDS011;640;48.310;11.728;2023-04-22T07:15:54;3.33;;;2.28;;
1294;SDS011;640;48.310;11.728;2023-04-22T07:18:23;3.78;;;2.60;;
1294;SDS011;640;48.310;11.728;2023-04-22T07:20:51;3.20;;;2.20;;
1294;SDS011;640;48.310;11.728;2023-04-22T07:23:19;4.63;;;2.30;;
1294;SDS011;640;48.310;11.728;2023-04-22T07:25:48;3.00;;;1.95;;
1294;SDS011;640;48.310;11.728;2023-04-22T07:28:17;3.33;;;1.83;;
1294;SDS011;640;48.310;11.728;2023-04-22T07:30:46;3.87;;;1.80;;
1294;SDS011;640;48.310;11.728;2023-04-22T07:33:14;4.40;;;2.10;;
1294;SDS011;640;48.310;11.728;2023-04-22T07:35:42;3.85;;;2.30;;
1294;SDS011;640;48.310;11.728;2023-04-22T07:38:11;3.25;;;2.47;;
1294;SDS011;640;48.310;11.728;2023-04-22T07:40:40;5.68;;;3.22;;
1294;SDS011;640;48.310;11.728;2023-04-22T07:43:08;6.60;;;2.70;;
1294;SDS011;640;48.310;11.728;2023-04-22T07:45:38;3.53;;;2.17;;
1294;SDS011;640;48.310;11.728;2023-04-22T07:48:06;5.90;;;2.72;;
1294;SDS011;640;48.310;11.728;2023-04-22T07:50:35;4.20;;;2.50;;
1294;SDS011;640;48.310;11.728;2023-04-22T07:53:04;5.87;;;2.60;;
1294;SDS011;640;48.310;11.728;2023-04-22T07:55:33;3.53;;;2.50;;
1294;SDS011;640;48.310;11.728;2023-04-22T07:58:01;3.65;;;2.30;;
1294;SDS011;640;48.310;11.728;2023-04-22T08:00:32;3.42;;;2.03;;
1294;SDS011;640;48.310;11.728;2023-04-22T08:03:02;7.35;;;2.10;;
1294;SDS011;640;48.310;11.728;2023-04-22T08:05:31;4.57;;;2.40;;
1294;SDS011;640;48.310;11.728;2023-04-22T08:07:59;4.32;;;2.67;;
1294;SDS011;640;48.310;11.728;2023-04-22T08:10:27;5.65;;;2.00;;
1294;SDS011;640;48.310;11.728;2023-04-22T08:12:56;3.88;;;2.13;;
1294;SDS011;640;48.310;11.728;2023-04-22T08:15:24;3.72;;;1.67;;
1294;SDS011;640;48.310;11.728;2023-04-22T08:17:52;5.03;;;1.95;;
1294;SDS011;640;48.310;11.728;2023-04-22T08:20:22;3.65;;;1.90;;
1294;SDS011;640;48.310;11.728;2023-04-22T08:22:51;2.60;;;1.80;;
1294;SDS011;640;48.310;11.728;2023-04-22T08:25:23;3.63;;;1.75;;
1294;SDS011;640;48.310;11.728;2023-04-22T08:27:52;3.22;;;1.77;;
1294;SDS011;640;48.310;11.728;2023-04-22T08:30:20;2.35;;;1.73;;
1294;SDS011;640;48.310;11.728;2023-04-22T08:32:49;3.20;;;1.85;;
1294;SDS011;640;48.310;11.728;2023-04-22T08:35:19;4.05;;;1.95;;
1294;SDS011;640;48.310;11.728;2023-04-22T08:37:49;5.05;;;1.98;;
1294;SDS011;640;48.310;11.728;2023-04-22T08:40:17;3.50;;;2.47;;
1294;SDS011;640;48.310;11.728;2023-04-22T08:42:45;3.22;;;2.40;;
1294;SDS011;640;48.310;11.728;2023-04-22T08:45:15;4.13;;;2.38;;
1294;SDS011;640;48.310;11.728;2023-04-22T08:47:45;3.42;;;2.40;;
1294;SDS011;640;48.310;11.728;2023-04-22T08:50:14;4.00;;;2.38;;
1294;SDS011;640;48.310;11.728;2023-04-22T08:52:42;4.07;;;2.40;;
1294;SDS011;640;48.310;11.728;2023-04-22T08:55:12;4.63;;;2.80;;
1294;SDS011;640;48.310;11.728;2023-04-22T08:57:41;3.65;;;2.78;;
1294;SDS011;640;48.310;11.728;2023-04-22T09:00:10;3.88;;;2.80;;
1294;SDS011;640;48.310;11.728;2023-04-22T09:02:39;3.40;;;2.80;;
1294;SDS011;640;48.310;11.728;2023-04-22T09:05:10;4.13;;;2.75;;
1294;SDS011;640;48.310;11.728;2023-04-22T09:07:40;4.00;;;3.20;;
1294;SDS011;640;48.310;11.728;2023-04-22T09:10:09;4.00;;;2.78;;
1294;SDS011;640;48.310;11.728;2023-04-22T09:12:40;3.80;;;2.65;;
1294;SDS011;640;48.310;11.728;2023-04-22T09:15:10;3.50;;;2.58;;
1294;SDS011;640;48.310;11.728;2023-04-22T09:17:39;5.95;;;3.08;;
1294;SDS011;640;48.310;11.728;2023-04-22T09:20:09;5.60;;;2.63;;
1294;SDS011;640;48.310;11.728;2023-04-22T09:22:39;4.88;;;3.13;;
1294;SDS011;640;48.310;11.728;2023-04-22T09:25:14;4.10;;;2.65;;
1294;SDS011;640;48.310;11.728;2023-04-22T09:27:48;4.22;;;2.92;;
1294;SDS011;640;48.310;11.728;2023-04-22T09:30:17;5.55;;;3.47;;
1294;SDS011;640;48.310;11.728;2023-04-22T09:32:52;6.95;;;3.20;;
1294;SDS011;640;48.310;11.728;2023-04-22T09:35:22;5.55;;;3.13;;
1294;SDS011;640;48.310;11.728;2023-04-22T09:37:53;6.32;;;3.47;;
1294;SDS011;640;48.310;11.728;2023-04-22T09:40:22;4.05;;;2.92;;
1294;SDS011;640;48.310;11.728;2023-04-22T09:42:52;5.43;;;3.33;;
1294;SDS011;640;48.310;11.728;2023-04-22T09:45:26;4.88;;;2.80;;
1294;SDS011;640;48.310;11.728;2023-04-22T09:47:56;6.20;;;2.75;;
1294;SDS011;640;48.310;11.728;2023-04-22T09:50:25;2.67;;;2.22;;
1294;SDS011;640;48.310;11.728;2023-04-22T09:52:55;4.03;;;3.07;;
1294;SDS011;640;48.310;11.728;2023-04-22T09:55:25;3.58;;;2.45;;
1294;SDS011;640;48.310;11.728;2023-04-22T09:57:56;3.88;;;2.70;;
1294;SDS011;640;48.310;11.728;2023-04-22T10:00:26;3.92;;;2.83;;
1294;SDS011;640;48.310;11.728;2023-04-22T10:02:55;3.75;;;2.72;;
1294;SDS011;640;48.310;11.728;2023-04-22T10:05:24;4.07;;;2.22;;
1294;SDS011;640;48.310;11.728;2023-04-22T10:07:52;3.60;;;2.88;;
1294;SDS011;640;48.310;11.728;2023-04-22T10:10:21;3.45;;;2.35;;
1294;SDS011;640;48.310;11.728;2023-04-22T10:12:50;6.45;;;2.67;;
1294;SDS011;640;48.310;11.728;2023-04-22T10:15:20;5.22;;;2.67;;
1294;SDS011;640;48.310;11.728;2023-04-22T10:17:52;3.13;;;2.25;;
1294;SDS011;640;48.310;11.728;2023-04-22T10:20:22;4.23;;;2.20;;
1294;SDS011;640;48.310;11.728;2023-04-22T10:22:51;3.80;;;2.30;;
1294;SDS011;640;48.310;11.728;2023-04-22T10:25:20;3.15;;;2.30;;
1294;SDS011;640;48.310;11.728;2023-04-22T10:27:53;5.97;;;2.65;;
1294;SDS011;640;48.310;11.728;2023-04-22T10:30:29;3.20;;;2.80;;
1294;SDS011;640;48.310;11.728;2023-04-22T10:36:06;4.10;;;2.88;;
1294;SDS011;640;48.310;11.728;2023-04-22T10:38:40;3.40;;;2.80;;
1294;SDS011;640;48.310;11.728;2023-04-22T10:41:29;5.00;;;2.67;;
1294;SDS011;640;48.310;11.728;2023-04-22T10:43:59;4.10;;;3.28;;
1294;SDS011;640;48.310;11.728;2023-04-22T10:49:29;3.70;;;2.92;;
1294;SDS011;640;48.310;11.728;2023-04-22T10:51:58;3.60;;;2.50;;
1294;SDS011;640;48.310;11.728;2023-04-22T10:57:32;4.85;;;2.30;;
1294;SDS011;640;48.310;11.728;2023-04-22T11:00:22;4.50;;;3.45;;
1294;SDS011;640;48.310;11.728;2023-04-22T11:03:23;3.03;;;2.30;;
1294;SDS011;640;48.310;11.728;2023-04-22T11:08:43;4.10;;;2.38;;
1294;SDS011;640;48.310;11.728;2023-04-22T11:11:12;3.17;;;2.47;;
1294;SDS011;640;48.310;11.728;2023-04-22T11:13:40;5.35;;;2.30;;
1294;SDS011;640;48.310;11.728;2023-04-22T11:16:09;3.20;;;2.20;;
1294;SDS011;640;48.310;11.728;2023-04-22T11:18:39;3.47;;;2.45;;
1294;SDS011;640;48.310;11.728;2023-04-22T11:21:08;4.32;;;2.53;;
1294;SDS011;640;48.310;11.728;2023-04-22T11:23:36;8.75;;;3.05;;
1294;SDS011;640;48.310;11.728;2023-04-22T11:26:04;3.67;;;2.45;;
1294;SDS011;640;48.310;11.728;2023-04-22T11:28:33;2.78;;;2.33;;
1294;SDS011;640;48.310;11.728;2023-04-22T11:31:02;4.35;;;2.30;;
1294;SDS011;640;48.310;11.728;2023-04-22T11:33:32;2.67;;;2.13;;
1294;SDS011;640;48.310;11.728;2023-04-22T11:36:03;2.80;;;2.10;;
1294;SDS011;640;48.310;11.728;2023-04-22T11:38:32;2.28;;;1.83;;
1294;SDS011;640;48.310;11.728;2023-04-22T11:41:02;5.53;;;2.20;;
1294;SDS011;640;48.310;11.728;2023-04-22T11:43:30;2.58;;;2.08;;
1294;SDS011;640;48.310;11.728;2023-04-22T11:45:59;3.70;;;1.92;;
1294;SDS011;640;48.310;11.728;2023-04-22T11:48:28;2.92;;;1.90;;
1294;SDS011;640;48.310;11.728;2023-04-22T11:51:07;2.90;;;2.05;;
1294;SDS011;640;48.310;11.728;2023-04-22T11:53:37;2.13;;;1.63;;
1294;SDS011;640;48.310;11.728;2023-04-22T11:56:07;2.80;;;2.00;;
1294;SDS011;640;48.310;11.728;2023-04-22T11:58:37;2.78;;;1.95;;
1294;SDS011;640;48.310;11.728;2023-04-22T12:01:10;3.25;;;2.17;;
1294;SDS011;640;48.310;11.728;2023-04-22T12:03:39;3.95;;;1.63;;
1294;SDS011;640;48.310;11.728;2023-04-22T12:06:09;2.25;;;1.73;;
1294;SDS011;640;48.310;11.728;2023-04-22T12:08:38;2.10;;;1.50;;
1294;SDS011;640;48.310;11.728;2023-04-22T12:11:10;3.05;;;2.05;;
1294;SDS011;640;48.310;11.728;2023-04-22T12:13:40;4.78;;;2.30;;
1294;SDS011;640;48.310;11.728;2023-04-22T12:16:09;2.35;;;1.90;;
1294;SDS011;640;48.310;11.728;2023-04-22T12:18:39;3.83;;;2.08;;
1294;SDS011;640;48.310;11.728;2023-04-22T12:21:10;2.97;;;1.73;;
1294;SDS011;640;48.310;11.728;2023-04-22T12:23:40;3.22;;;1.90;;
1294;SDS011;640;48.310;11.728;2023-04-22T12:26:09;2.92;;;1.85;;
1294;SDS011;640;48.310;11.728;2023-04-22T12:28:38;2.45;;;1.65;;
1294;SDS011;640;48.310;11.728;2023-04-22T12:31:07;6.50;;;1.50;;
1294;SDS011;640;48.310;11.728;2023-04-22T12:33:36;2.08;;;1.50;;
1294;SDS011;640;48.310;11.728;2023-04-22T12:36:05;1.70;;;1.50;;
1294;SDS011;640;48.310;11.728;2023-04-22T12:38:35;5.40;;;2.05;;
1294;SDS011;640;48.310;11.728;2023-04-22T12:41:04;3.10;;;2.00;;
1294;SDS011;640;48.310;11.728;2023-04-22T12:43:33;2.97;;;2.28;;
1294;SDS011;640;48.310;11.728;2023-04-22T12:46:02;2.65;;;2.00;;
1294;SDS011;640;48.310;11.728;2023-04-22T12:48:31;4.13;;;1.80;;
1294;SDS011;640;48.310;11.728;2023-04-22T12:51:00;3.03;;;1.60;;
1294;SDS011;640;48.310;11.728;2023-04-22T12:53:28;1.83;;;1.60;;
1294;SDS011;640;48.310;11.728;2023-04-22T12:55:58;2.75;;;1.70;;
1294;SDS011;640;48.310;11.728;2023-04-22T12:58:26;2.45;;;1.48;;
1294;SDS011;640;48.310;11.728;2023-04-22T13:00:54;2.60;;;1.50;;
1294;SDS011;640;48.310;11.728;2023-04-22T13:03:22;2.65;;;1.70;;
1294;SDS011;640;48.310;11.728;2023-04-22T13:05:51;2.50;;;1.63;;
1294;SDS011;640;48.310;11.728;2023-04-22T13:08:19;4.82;;;1.77;;
1294;SDS011;640;48.310;11.728;2023-04-22T13:10:48;2.28;;;1.40;;
1294;SDS011;640;48.310;11.728;2023-04-22T13:13:17;1.40;;;1.10;;
1294;SDS011;640;48.310;11.728;2023-04-22T13:15:46;1.48;;;1.20;;
1294;SDS011;640;48.310;11.728;2023-04-22T13:18:20;2.03;;;1.13;;
1294;SDS011;640;48.310;11.728;2023-04-22T13:20:48;2.55;;;1.75;;
1294;SDS011;640;48.310;11.728;2023-04-22T13:23:17;4.32;;;1.55;;
1294;SDS011;640;48.310;11.728;2023-04-22T13:25:47;2.20;;;1.50;;
1294;SDS011;640;48.310;11.728;2023-04-22T13:28:17;1.88;;;1.50;;
1294;SDS011;640;48.310;11.728;2023-04-22T13:30:46;2.05;;;1.30;;
1294;SDS011;640;48.310;11.728;2023-04-22T13:33:14;3.70;;;1.50;;
1294;SDS011;640;48.310;11.728;2023-04-22T13:35:42;2.15;;;1.08;;
1294;SDS011;640;48.310;11.728;2023-04-22T13:38:11;4.45;;;1.55;;
1294;SDS011;640;48.310;11.728;2023-04-22T13:40:39;1.70;;;1.40;;
1294;SDS011;640;48.310;11.728;2023-04-22T13:43:08;2.67;;;1.25;;
1294;SDS011;640;48.310;11.728;2023-04-22T13:45:37;2.50;;;1.60;;
1294;SDS011;640;48.310;11.728;2023-04-22T13:48:06;4.43;;;1.23;;
1294;SDS011;640;48.310;11.728;2023-04-22T13:50:35;1.40;;;1.00;;
1294;SDS011;640;48.310;11.728;2023-04-22T13:53:03;2.47;;;1.70;;
1294;SDS011;640;48.310;11.728;2023-04-22T13:55:35;4.40;;;1.50;;
1294;SDS011;640;48.310;11.728;2023-04-22T13:58:04;3.45;;;1.48;;
1294;SDS011;640;48.310;11.728;2023-04-22T14:00:33;1.30;;;1.10;;
1294;SDS011;640;48.310;11.728;2023-04-22T14:03:03;1.75;;;1.08;;
1294;SDS011;640;48.310;11.728;2023-04-22T14:08:00;2.28;;;0.90;;
1294;SDS011;640;48.310;11.728;2023-04-22T14:10:28;1.20;;;0.90;;
1294;SDS011;640;48.310;11.728;2023-04-22T14:12:57;1.52;;;1.15;;
1294;SDS011;640;48.310;11.728;2023-04-22T14:15:25;1.83;;;1.00;;
1294;SDS011;640;48.310;11.728;2023-04-22T14:17:54;1.27;;;1.00;;
1294;SDS011;640;48.310;11.728;2023-04-22T14:20:23;4.60;;;0.90;;
1294;SDS011;640;48.310;11.728;2023-04-22T14:22:52;1.98;;;1.00;;
1294;SDS011;640;48.310;11.728;2023-04-22T14:25:20;3.60;;;1.42;;
1294;SDS011;640;48.310;11.728;2023-04-22T14:27:48;2.28;;;1.20;;
1294;SDS011;640;48.310;11.728;2023-04-22T14:30:17;1.65;;;1.30;;
1294;SDS011;640;48.310;11.728;2023-04-22T14:32:47;1.92;;;1.15;;
1294;SDS011;640;48.310;11.728;2023-04-22T14:35:16;1.92;;;1.20;;
1294;SDS011;640;48.310;11.728;2023-04-22T14:37:46;1.35;;;1.10;;
1294;SDS011;640;48.310;11.728;2023-04-22T14:40:14;1.60;;;1.00;;
1294;SDS011;640;48.310;11.728;2023-04-22T14:42:43;2.72;;;1.30;;
1294;SDS011;640;48.310;11.728;2023-04-22T14:45:11;2.53;;;1.13;;
1294;SDS011;640;48.310;11.728;2023-04-22T14:47:40;1.58;;;1.38;;
1294;SDS011;640;48.310;11.728;2023-04-22T14:50:09;2.85;;;1.48;;
1294;SDS011;640;48.310;11.728;2023-04-22T14:52:37;2.00;;;1.10;;
1294;SDS011;640;48.310;11.728;2023-04-22T14:55:07;2.58;;;0.93;;
1294;SDS011;640;48.310;11.728;2023-04-22T14:57:49;1.48;;;1.05;;
1294;SDS011;640;48.310;11.728;2023-04-22T15:02:47;2.13;;;1.00;;
1294;SDS011;640;48.310;11.728;2023-04-22T15:05:15;1.50;;;1.10;;
1294;SDS011;640;48.310;11.728;2023-04-22T15:07:43;1.15;;;0.95;;
1294;SDS011;640;48.310;11.728;2023-04-22T15:10:13;1.67;;;1.15;;
1294;SDS011;640;48.310;11.728;2023-04-22T15:15:10;1.70;;;1.02;;
1294;SDS011;640;48.310;11.728;2023-04-22T15:17:41;4.07;;;1.10;;
1294;SDS011;640;48.310;11.728;2023-04-22T15:20:11;3.25;;;1.10;;
1294;SDS011;640;48.310;11.728;2023-04-22T15:22:40;1.40;;;1.00;;
1294;SDS011;640;48.310;11.728;2023-04-22T15:25:08;1.35;;;1.05;;
1294;SDS011;640;48.310;11.728;2023-04-22T15:27:39;1.20;;;1.08;;
1294;SDS011;640;48.310;11.728;2023-04-22T15:30:07;2.10;;;1.27;;
1294;SDS011;640;48.310;11.728;2023-04-22T15:32:36;1.33;;;1.00;;
1294;SDS011;640;48.310;11.728;2023-04-22T15:35:06;1.60;;;1.20;;
1294;SDS011;640;48.310;11.728;2023-04-22T15:37:34;1.83;;;1.13;;
1294;SDS011;640;48.310;11.728;2023-04-22T15:40:03;2.10;;;1.20;;
1294;SDS011;640;48.310;11.728;2023-04-22T15:42:32;3.80;;;1.02;;
1294;SDS011;640;48.310;11.728;2023-04-22T15:45:03;2.78;;;1.95;;
1294;SDS011;640;48.310;11.728;2023-04-22T15:47:32;2.67;;;1.80;;
1294;SDS011;640;48.310;11.728;2023-04-22T15:50:00;2.03;;;1.48;;